EXS33P GCLA-EGCC
Flight info
| Callsign | EXS33P |
|---|---|
| Flight time | N/A |
| Altitude | 38000 |
| Route | N0433F380 SAMAR DCT BEXAL DCT TERVA DCT AGADO DCT KORUL DCT EBOMO DCT RUSIB DCT NOZHU/N0435F390 DCT SHIRI DCT TOJAQ DCT EPACE/N0429F350 DCT ACCOP DCT MOCQO P16 AXCIS |
| Aircraft | B738/M-SDFGIJ1RWYZ/LB1 |
Departure
| Time | 2026-04-27 19:37 |
|---|---|
| Airport | La Palma Airport (GCLA) |
Arrival
| Time | N/A |
|---|---|
| Airport | Manchester Airport (EGCC) |
| Time | Latitude | Longitude | Altitude | Speed | Heading |
|---|---|---|---|---|---|
| 2026-04-27 18:24 | 28.62200 | -17.75361 | 113 ft | 0 kts | 88° |
| 2026-04-27 19:29 | 28.62200 | -17.75363 | 113 ft | 2 kts | 88° |
| 2026-04-27 19:29 | 28.62201 | -17.75392 | 111 ft | 4 kts | 99° |
| 2026-04-27 19:29 | 28.62208 | -17.75421 | 111 ft | 4 kts | 120° |
| 2026-04-27 19:30 | 28.62224 | -17.75441 | 112 ft | 4 kts | 167° |
| 2026-04-27 19:30 | 28.62235 | -17.75443 | 111 ft | 1 kts | 179° |
| 2026-04-27 19:30 | 28.62236 | -17.75443 | 111 ft | 0 kts | 179° |
| 2026-04-27 19:33 | 28.62207 | -17.75442 | 111 ft | 6 kts | 179° |
| 2026-04-27 19:33 | 28.62161 | -17.75441 | 113 ft | 7 kts | 179° |
| 2026-04-27 19:34 | 28.62111 | -17.75445 | 111 ft | 9 kts | 202° |
| 2026-04-27 19:34 | 28.62081 | -17.75517 | 114 ft | 12 kts | 255° |
| 2026-04-27 19:34 | 28.61994 | -17.75548 | 116 ft | 17 kts | 179° |
| 2026-04-27 19:34 | 28.61861 | -17.75545 | 112 ft | 20 kts | 179° |
| 2026-04-27 19:35 | 28.61739 | -17.75547 | 111 ft | 14 kts | 193° |
| 2026-04-27 19:35 | 28.61653 | -17.75570 | 110 ft | 10 kts | 173° |
| 2026-04-27 19:35 | 28.61635 | -17.75534 | 110 ft | 5 kts | 48° |
| 2026-04-27 19:35 | 28.61665 | -17.75540 | 111 ft | 4 kts | 342° |
| 2026-04-27 19:36 | 28.61679 | -17.75541 | 111 ft | 0 kts | 359° |
| 2026-04-27 19:36 | 28.61768 | -17.75543 | 113 ft | 42 kts | 359° |
| 2026-04-27 19:36 | 28.62315 | -17.75554 | 110 ft | 113 kts | 359° |
| 2026-04-27 19:37 | 28.63303 | -17.75560 | 212 ft | 161 kts | 1° |
| 2026-04-27 19:37 | 28.64416 | -17.75539 | 999 ft | 160 kts | 9° |
| 2026-04-27 19:37 | 28.65393 | -17.74869 | 1665 ft | 178 kts | 51° |
| 2026-04-27 19:37 | 28.65880 | -17.73539 | 2408 ft | 188 kts | 75° |
| 2026-04-27 19:38 | 28.65999 | -17.72026 | 3159 ft | 195 kts | 85° |
| 2026-04-27 19:38 | 28.66039 | -17.70383 | 3517 ft | 219 kts | 85° |
| 2026-04-27 19:38 | 28.66071 | -17.68617 | 4065 ft | 224 kts | 84° |
| 2026-04-27 19:38 | 28.66434 | -17.66939 | 4644 ft | 227 kts | 55° |
| 2026-04-27 19:39 | 28.67487 | -17.65469 | 4920 ft | 252 kts | 47° |
| 2026-04-27 19:39 | 28.68653 | -17.63922 | 5597 ft | 261 kts | 48° |
| 2026-04-27 19:39 | 28.69824 | -17.62349 | 6514 ft | 261 kts | 49° |
| 2026-04-27 19:39 | 28.71017 | -17.60739 | 7172 ft | 270 kts | 49° |
| 2026-04-27 19:40 | 28.72218 | -17.59094 | 8034 ft | 270 kts | 49° |
| 2026-04-27 19:40 | 28.73430 | -17.57421 | 8741 ft | 278 kts | 48° |
| 2026-04-27 19:40 | 28.74675 | -17.55702 | 9445 ft | 284 kts | 48° |
| 2026-04-27 19:40 | 28.75936 | -17.53958 | 10243 ft | 286 kts | 47° |
| 2026-04-27 19:41 | 28.77237 | -17.52162 | 10597 ft | 306 kts | 48° |
| 2026-04-27 19:41 | 28.78645 | -17.50218 | 10805 ft | 329 kts | 48° |
| 2026-04-27 19:41 | 28.80133 | -17.48161 | 11240 ft | 342 kts | 48° |
| 2026-04-27 19:41 | 28.81658 | -17.46049 | 11870 ft | 347 kts | 48° |
| 2026-04-27 19:42 | 28.83199 | -17.43911 | 12583 ft | 350 kts | 48° |
| 2026-04-27 19:42 | 28.84754 | -17.41753 | 13255 ft | 355 kts | 48° |
| 2026-04-27 19:42 | 28.86332 | -17.39562 | 13923 ft | 360 kts | 48° |
| 2026-04-27 19:42 | 28.87931 | -17.37342 | 14523 ft | 363 kts | 48° |
| 2026-04-27 19:43 | 28.89521 | -17.35133 | 15176 ft | 366 kts | 48° |
| 2026-04-27 19:43 | 28.91141 | -17.32881 | 15819 ft | 369 kts | 48° |
| 2026-04-27 19:43 | 28.92776 | -17.30609 | 16457 ft | 372 kts | 48° |
| 2026-04-27 19:43 | 28.94421 | -17.28322 | 17087 ft | 375 kts | 48° |
| 2026-04-27 19:44 | 28.96083 | -17.26008 | 17711 ft | 378 kts | 48° |
| 2026-04-27 19:44 | 28.97758 | -17.23676 | 18335 ft | 381 kts | 48° |
| 2026-04-27 19:44 | 28.99446 | -17.21324 | 18866 ft | 385 kts | 48° |
| 2026-04-27 19:44 | 29.01153 | -17.18946 | 19368 ft | 389 kts | 48° |
| 2026-04-27 19:45 | 29.02875 | -17.16544 | 19886 ft | 392 kts | 48° |
| 2026-04-27 19:45 | 29.04611 | -17.14122 | 20431 ft | 395 kts | 48° |
| 2026-04-27 19:45 | 29.06359 | -17.11682 | 20952 ft | 398 kts | 48° |
| 2026-04-27 19:45 | 29.08119 | -17.09223 | 21456 ft | 402 kts | 48° |
| 2026-04-27 19:46 | 29.09896 | -17.06739 | 21949 ft | 405 kts | 48° |
| 2026-04-27 19:46 | 29.11687 | -17.04233 | 22445 ft | 408 kts | 48° |
| 2026-04-27 19:46 | 29.13494 | -17.01705 | 22929 ft | 412 kts | 48° |
| 2026-04-27 19:46 | 29.15312 | -16.99158 | 23396 ft | 415 kts | 48° |
| 2026-04-27 19:47 | 29.17144 | -16.96591 | 23838 ft | 419 kts | 48° |
| 2026-04-27 19:47 | 29.18991 | -16.94001 | 24234 ft | 422 kts | 47° |
| 2026-04-27 19:47 | 29.20851 | -16.91391 | 24629 ft | 424 kts | 47° |
| 2026-04-27 19:47 | 29.22694 | -16.88803 | 25009 ft | 427 kts | 47° |
| 2026-04-27 19:48 | 29.24577 | -16.86158 | 25379 ft | 430 kts | 47° |
| 2026-04-27 19:48 | 29.26473 | -16.83494 | 25756 ft | 433 kts | 47° |
| 2026-04-27 19:48 | 29.28378 | -16.80813 | 26123 ft | 435 kts | 47° |
| 2026-04-27 19:48 | 29.30295 | -16.78116 | 26482 ft | 438 kts | 46° |
| 2026-04-27 19:49 | 29.32225 | -16.75397 | 26837 ft | 441 kts | 46° |
| 2026-04-27 19:49 | 29.34161 | -16.72667 | 27216 ft | 443 kts | 46° |
| 2026-04-27 19:49 | 29.36113 | -16.69914 | 27601 ft | 445 kts | 46° |
| 2026-04-27 19:49 | 29.38069 | -16.67154 | 27954 ft | 447 kts | 46° |
| 2026-04-27 19:50 | 29.40033 | -16.64379 | 28285 ft | 450 kts | 45° |
| 2026-04-27 19:50 | 29.42014 | -16.61579 | 28604 ft | 452 kts | 45° |
| 2026-04-27 19:50 | 29.43977 | -16.58803 | 28918 ft | 455 kts | 45° |
| 2026-04-27 19:50 | 29.45972 | -16.55980 | 29234 ft | 457 kts | 45° |
| 2026-04-27 19:51 | 29.48006 | -16.53099 | 29551 ft | 459 kts | 45° |
| 2026-04-27 19:51 | 29.49994 | -16.50280 | 29863 ft | 462 kts | 45° |
| 2026-04-27 19:51 | 29.52017 | -16.47411 | 30146 ft | 464 kts | 45° |
| 2026-04-27 19:51 | 29.54056 | -16.44515 | 30394 ft | 466 kts | 45° |
| 2026-04-27 19:52 | 29.56095 | -16.41618 | 30632 ft | 468 kts | 45° |
| 2026-04-27 19:52 | 29.57480 | -16.39649 | 30787 ft | 469 kts | 45° |
| 2026-04-27 19:52 | 29.60193 | -16.35765 | 31184 ft | 470 kts | 46° |
| 2026-04-27 19:52 | 29.62186 | -16.32783 | 31574 ft | 469 kts | 47° |
| 2026-04-27 19:53 | 29.66091 | -16.26788 | 32263 ft | 468 kts | 47° |
| 2026-04-27 19:53 | 29.68042 | -16.23786 | 32516 ft | 469 kts | 47° |
| 2026-04-27 19:53 | 29.69997 | -16.20787 | 32804 ft | 469 kts | 47° |
| 2026-04-27 19:54 | 29.71953 | -16.17792 | 33138 ft | 468 kts | 47° |
| 2026-04-27 19:54 | 29.73248 | -16.15813 | 33347 ft | 467 kts | 47° |
| 2026-04-27 19:54 | 29.75204 | -16.12826 | 33628 ft | 467 kts | 47° |
| 2026-04-27 19:54 | 29.77162 | -16.09836 | 33898 ft | 468 kts | 47° |
| 2026-04-27 19:55 | 29.79118 | -16.06848 | 34172 ft | 467 kts | 47° |
| 2026-04-27 19:55 | 29.81706 | -16.02888 | 34503 ft | 467 kts | 47° |
| 2026-04-27 19:55 | 29.83658 | -15.99898 | 34726 ft | 467 kts | 47° |
| 2026-04-27 19:55 | 29.85607 | -15.96912 | 34972 ft | 467 kts | 47° |
| 2026-04-27 19:56 | 29.86924 | -15.94891 | 35142 ft | 466 kts | 47° |
| 2026-04-27 19:56 | 29.89501 | -15.90936 | 35450 ft | 466 kts | 47° |
| 2026-04-27 19:56 | 29.90814 | -15.88920 | 35590 ft | 466 kts | 47° |
| 2026-04-27 19:56 | 29.92758 | -15.85932 | 35798 ft | 466 kts | 47° |
| 2026-04-27 19:57 | 29.94700 | -15.82944 | 36022 ft | 466 kts | 47° |
| 2026-04-27 19:57 | 29.96616 | -15.79996 | 36237 ft | 465 kts | 47° |
| 2026-04-27 19:57 | 29.98556 | -15.77008 | 36438 ft | 465 kts | 47° |
| 2026-04-27 19:57 | 30.00517 | -15.74050 | 36667 ft | 464 kts | 46° |
| 2026-04-27 19:58 | 30.02505 | -15.71136 | 36959 ft | 461 kts | 45° |
| 2026-04-27 19:58 | 30.04498 | -15.68250 | 37243 ft | 458 kts | 45° |
| 2026-04-27 19:58 | 30.06487 | -15.65376 | 37412 ft | 459 kts | 45° |
| 2026-04-27 19:58 | 30.08483 | -15.62488 | 37560 ft | 460 kts | 45° |
| 2026-04-27 19:59 | 30.10474 | -15.59596 | 37699 ft | 461 kts | 45° |
| 2026-04-27 19:59 | 30.12465 | -15.56692 | 37895 ft | 460 kts | 45° |
| 2026-04-27 19:59 | 30.14449 | -15.53790 | 38084 ft | 460 kts | 45° |
| 2026-04-27 19:59 | 30.16438 | -15.50877 | 38072 ft | 463 kts | 45° |
| 2026-04-27 20:00 | 30.20420 | -15.45032 | 38087 ft | 462 kts | 45° |
| 2026-04-27 20:00 | 30.24373 | -15.39217 | 38080 ft | 458 kts | 45° |
| 2026-04-27 20:01 | 30.28276 | -15.33471 | 38083 ft | 456 kts | 45° |
| 2026-04-27 20:01 | 30.32182 | -15.27715 | 38083 ft | 454 kts | 45° |
| 2026-04-27 20:02 | 30.36081 | -15.21963 | 38094 ft | 454 kts | 46° |
| 2026-04-27 20:02 | 30.39976 | -15.16208 | 38081 ft | 454 kts | 46° |
| 2026-04-27 20:03 | 30.43873 | -15.10441 | 38087 ft | 455 kts | 46° |
| 2026-04-27 20:03 | 30.47774 | -15.04658 | 38087 ft | 456 kts | 46° |
| 2026-04-27 20:04 | 30.51682 | -14.98858 | 38083 ft | 457 kts | 46° |
| 2026-04-27 20:04 | 30.55597 | -14.93038 | 38103 ft | 458 kts | 46° |
| 2026-04-27 20:05 | 30.59523 | -14.87194 | 38086 ft | 460 kts | 46° |
| 2026-04-27 20:05 | 30.63428 | -14.81371 | 38081 ft | 461 kts | 46° |
| 2026-04-27 20:06 | 30.67367 | -14.75488 | 38099 ft | 462 kts | 46° |
| 2026-04-27 20:06 | 30.71311 | -14.69590 | 38079 ft | 462 kts | 46° |
| 2026-04-27 20:07 | 30.75253 | -14.63684 | 38070 ft | 462 kts | 46° |
| 2026-04-27 20:07 | 30.79184 | -14.57787 | 38070 ft | 461 kts | 46° |
| 2026-04-27 20:08 | 30.83080 | -14.51933 | 38081 ft | 460 kts | 47° |
| 2026-04-27 20:08 | 30.86989 | -14.46053 | 38065 ft | 459 kts | 47° |
| 2026-04-27 20:09 | 30.91293 | -14.40758 | 38068 ft | 440 kts | 25° |
| 2026-04-27 20:09 | 30.96723 | -14.37657 | 38078 ft | 434 kts | 19° |
| 2026-04-27 20:10 | 31.02217 | -14.34738 | 38076 ft | 434 kts | 19° |
| 2026-04-27 20:10 | 31.07702 | -14.31780 | 38067 ft | 435 kts | 20° |
| 2026-04-27 20:11 | 31.13187 | -14.28774 | 38067 ft | 436 kts | 20° |
| 2026-04-27 20:11 | 31.18673 | -14.25744 | 38066 ft | 437 kts | 20° |
| 2026-04-27 20:12 | 31.24170 | -14.22700 | 38068 ft | 438 kts | 20° |
| 2026-04-27 20:12 | 31.29681 | -14.19645 | 38058 ft | 439 kts | 21° |
| 2026-04-27 20:13 | 31.35208 | -14.16578 | 38065 ft | 440 kts | 21° |
| 2026-04-27 20:13 | 31.40755 | -14.13496 | 38067 ft | 442 kts | 21° |
| 2026-04-27 20:14 | 31.46271 | -14.10428 | 38070 ft | 443 kts | 21° |
| 2026-04-27 20:14 | 31.51837 | -14.07327 | 38063 ft | 443 kts | 21° |
| 2026-04-27 20:15 | 31.57408 | -14.04219 | 38073 ft | 444 kts | 21° |
| 2026-04-27 20:15 | 31.62987 | -14.01103 | 38064 ft | 444 kts | 21° |
| 2026-04-27 20:16 | 31.68563 | -13.97984 | 38055 ft | 444 kts | 21° |
| 2026-04-27 20:16 | 31.74137 | -13.94862 | 38056 ft | 443 kts | 21° |
| 2026-04-27 20:17 | 31.79697 | -13.91744 | 38052 ft | 442 kts | 21° |
| 2026-04-27 20:17 | 31.85247 | -13.88628 | 38063 ft | 442 kts | 21° |
| 2026-04-27 20:18 | 31.90758 | -13.85529 | 38064 ft | 441 kts | 22° |
| 2026-04-27 20:18 | 31.96298 | -13.82411 | 38053 ft | 442 kts | 22° |
| 2026-04-27 20:19 | 32.01846 | -13.79283 | 38054 ft | 442 kts | 22° |
| 2026-04-27 20:19 | 32.07398 | -13.76148 | 38050 ft | 443 kts | 22° |
| 2026-04-27 20:20 | 32.12962 | -13.73003 | 38049 ft | 444 kts | 22° |
| 2026-04-27 20:20 | 32.18543 | -13.69844 | 38048 ft | 446 kts | 23° |
| 2026-04-27 20:21 | 32.24140 | -13.66671 | 38048 ft | 447 kts | 23° |
| 2026-04-27 20:21 | 32.29750 | -13.63487 | 38042 ft | 448 kts | 23° |
| 2026-04-27 20:22 | 32.35371 | -13.60291 | 38042 ft | 449 kts | 23° |
| 2026-04-27 20:22 | 32.41007 | -13.57083 | 38040 ft | 449 kts | 23° |
| 2026-04-27 20:23 | 32.46645 | -13.53870 | 38039 ft | 450 kts | 23° |
| 2026-04-27 20:23 | 32.52246 | -13.50672 | 38041 ft | 450 kts | 23° |
| 2026-04-27 20:24 | 32.57886 | -13.47448 | 38026 ft | 450 kts | 23° |
| 2026-04-27 20:24 | 32.63529 | -13.44218 | 38036 ft | 451 kts | 24° |
| 2026-04-27 20:25 | 32.69176 | -13.40981 | 38038 ft | 451 kts | 23° |
| 2026-04-27 20:25 | 32.74837 | -13.37732 | 38035 ft | 452 kts | 24° |
| 2026-04-27 20:26 | 32.80504 | -13.34474 | 38029 ft | 453 kts | 24° |
| 2026-04-27 20:26 | 32.86180 | -13.31207 | 38029 ft | 454 kts | 24° |
| 2026-04-27 20:27 | 32.91860 | -13.27932 | 38033 ft | 454 kts | 24° |
| 2026-04-27 20:27 | 32.97551 | -13.24647 | 38037 ft | 455 kts | 24° |
| 2026-04-27 20:28 | 33.03246 | -13.21355 | 38030 ft | 455 kts | 24° |
| 2026-04-27 20:28 | 33.07984 | -13.18611 | 38031 ft | 455 kts | 24° |
| 2026-04-27 20:29 | 33.14602 | -13.14774 | 38028 ft | 455 kts | 24° |
| 2026-04-27 20:29 | 33.20298 | -13.11467 | 38022 ft | 455 kts | 25° |
| 2026-04-27 20:30 | 33.26000 | -13.08152 | 38031 ft | 455 kts | 25° |
| 2026-04-27 20:30 | 33.31696 | -13.04834 | 38021 ft | 456 kts | 25° |
| 2026-04-27 20:31 | 33.37357 | -13.01533 | 38019 ft | 456 kts | 25° |
| 2026-04-27 20:31 | 33.43053 | -12.98206 | 38020 ft | 456 kts | 25° |
| 2026-04-27 20:32 | 33.48745 | -12.94877 | 38018 ft | 456 kts | 25° |
| 2026-04-27 20:32 | 33.54440 | -12.91541 | 38020 ft | 455 kts | 25° |
| 2026-04-27 20:33 | 33.60135 | -12.88200 | 38020 ft | 455 kts | 25° |
| 2026-04-27 20:33 | 33.65826 | -12.84857 | 38016 ft | 455 kts | 25° |
| 2026-04-27 20:34 | 33.71514 | -12.81509 | 38016 ft | 455 kts | 25° |
| 2026-04-27 20:34 | 33.77205 | -12.78156 | 38019 ft | 455 kts | 25° |
| 2026-04-27 20:35 | 33.82890 | -12.74801 | 38017 ft | 455 kts | 26° |
| 2026-04-27 20:35 | 33.88577 | -12.71440 | 38012 ft | 455 kts | 26° |
| 2026-04-27 20:36 | 33.94263 | -12.68075 | 38014 ft | 455 kts | 26° |
| 2026-04-27 20:36 | 33.99947 | -12.64705 | 38008 ft | 455 kts | 26° |
| 2026-04-27 20:37 | 34.05626 | -12.61334 | 38009 ft | 455 kts | 26° |
| 2026-04-27 20:37 | 34.11300 | -12.57960 | 38012 ft | 455 kts | 26° |
| 2026-04-27 20:38 | 34.16940 | -12.54602 | 38018 ft | 455 kts | 26° |
| 2026-04-27 20:38 | 34.22614 | -12.51218 | 38019 ft | 455 kts | 26° |
| 2026-04-27 20:39 | 34.28284 | -12.47832 | 38005 ft | 455 kts | 26° |
| 2026-04-27 20:39 | 34.33959 | -12.44438 | 38014 ft | 455 kts | 26° |